Time;durP1;ratioP1;P1;durP2;ratioP2;P2;SDS_P1;SDS_P2;PMS_P1;PMS_P2;Temp;Humidity;BMP_temperature;BMP_pressure;BME280_temperature;BME280_humidity;BME280_pressure;Samples;Min_cycle;Max_cycle;Signal;HPM_P1;HPM_P2
2024/04/01 00:08:02;;;;;;;;;;;11.70;99.90;;;;;;6756191;88;20115;-79
2024/04/01 00:18:02;;;;;;;;;;;11.40;99.90;;;;;;6758089;87;20115;-78
2024/04/01 00:28:03;;;;;;;;;;;11.40;99.90;;;;;;6756624;88;20542;-79
2024/04/01 00:38:04;;;;;;;;;;;11.60;99.90;;;;;;6751080;88;20089;-77
2024/04/01 00:48:06;;;;;;;;;;;11.60;99.90;;;;;;6753955;88;20053;-77
2024/04/01 00:58:07;;;;;;;;;;;11.30;99.90;;;;;;6756417;88;20073;-78
2024/04/01 01:08:07;;;;;;;;;;;11.20;99.90;;;;;;6756822;88;20090;-78
2024/04/01 01:18:08;;;;;;;;;;;11.10;99.90;;;;;;6755433;88;20154;-78
2024/04/01 01:28:08;;;;;;;;;;;11.20;99.90;;;;;;6755640;88;20080;-78
2024/04/01 01:38:09;;;;;;;;;;;11.20;99.90;;;;;;6770538;88;20145;-78
2024/04/01 01:58:19;;;;;;;;;;;11.50;99.90;;;;;;6740051;88;20057;-79
2024/04/01 02:08:20;;;;;;;;;;;11.40;99.90;;;;;;6740641;88;20087;-79
2024/04/01 02:18:21;;;;;;;;;;;11.40;99.90;;;;;;6741877;88;20111;-78
2024/04/01 02:28:21;;;;;;;;;;;11.40;99.90;;;;;;6740929;88;20128;-78
2024/04/01 02:38:21;;;;;;;;;;;11.30;99.90;;;;;;6740723;88;20146;-78
2024/04/01 02:48:22;;;;;;;;;;;11.30;99.90;;;;;;6740711;88;20079;-78
2024/04/01 02:58:22;;;;;;;;;;;11.20;99.90;;;;;;6743104;88;20609;-78
2024/04/01 03:08:23;;;;;;;;;;;11.00;99.90;;;;;;6743960;88;20546;-78
2024/04/01 03:18:24;;;;;;;;;;;10.90;99.90;;;;;;6746753;88;20057;-78
2024/04/01 03:28:24;;;;;;;;;;;10.80;99.90;;;;;;6750380;88;20066;-78
2024/04/01 03:38:25;;;;;;;;;;;10.70;99.90;;;;;;6747835;88;20593;-79
2024/04/01 03:48:26;;;;;;;;;;;10.60;99.90;;;;;;6751718;87;20072;-79
2024/04/01 03:58:26;;;;;;;;;;;10.60;99.90;;;;;;6757613;88;20066;-79
2024/04/01 04:08:26;;;;;;;;;;;10.40;99.90;;;;;;6761300;88;20129;-78
2024/04/01 04:18:27;;;;;;;;;;;10.30;99.90;;;;;;6763616;88;20053;-79
2024/04/01 04:28:27;;;;;;;;;;;10.00;99.90;;;;;;6757059;88;20060;-78
2024/04/01 04:38:28;;;;;;;;;;;9.90;99.90;;;;;;6753194;88;20049;-78
2024/04/01 04:48:28;;;;;;;;;;;9.80;99.90;;;;;;6754698;87;20909;-78
2024/04/01 04:58:29;;;;;;;;;;;9.60;99.90;;;;;;6758358;88;20100;-78
2024/04/01 05:08:29;;;;;;;;;;;9.60;99.90;;;;;;6757909;88;20151;-78
2024/04/01 05:18:30;;;;;;;;;;;9.60;99.90;;;;;;6756880;88;20058;-78
2024/04/01 05:28:30;;;;;;;;;;;9.60;99.90;;;;;;6757021;88;20384;-79
2024/04/01 05:38:31;;;;;;;;;;;9.50;99.90;;;;;;6757260;88;20150;-80
2024/04/01 05:48:31;;;;;;;;;;;9.50;99.90;;;;;;6757438;87;20060;-80
2024/04/01 05:58:32;;;;;;;;;;;9.50;99.90;;;;;;6757133;88;20157;-78
2024/04/01 06:08:32;;;;;;;;;;;9.50;99.90;;;;;;6755894;88;20070;-79
2024/04/01 06:18:33;;;;;;;;;;;9.50;99.90;;;;;;6758072;88;20072;-78
2024/04/01 06:28:33;;;;;;;;;;;9.50;99.90;;;;;;6757852;88;20119;-78
2024/04/01 06:38:33;;;;;;;;;;;9.50;99.90;;;;;;6756952;88;20071;-79
2024/04/01 06:48:37;;;;;;;;;;;9.50;99.90;;;;;;6755914;87;20115;-78
2024/04/01 06:58:38;;;;;;;;;;;9.50;99.90;;;;;;6755986;88;20127;-79
2024/04/01 07:08:39;;;;;;;;;;;9.50;99.90;;;;;;6756410;88;20105;-79
2024/04/01 07:18:39;;;;;;;;;;;9.50;99.90;;;;;;6751489;88;20061;-77
2024/04/01 07:28:40;;;;;;;;;;;9.60;99.90;;;;;;6746481;88;20090;-78
2024/04/01 07:38:40;;;;;;;;;;;9.60;99.90;;;;;;6754992;88;20072;-78
2024/04/01 07:48:41;;;;;;;;;;;9.60;99.90;;;;;;6751907;77;20118;-78
2024/04/01 07:58:41;;;;;;;;;;;9.60;99.90;;;;;;6737284;88;20079;-79
2024/04/01 08:08:41;;;;;;;;;;;9.60;99.90;;;;;;6746444;88;20092;-78
2024/04/01 08:18:42;;;;;;;;;;;9.60;99.90;;;;;;6749110;88;20054;-78
2024/04/01 08:28:42;;;;;;;;;;;9.70;99.90;;;;;;6736603;88;20148;-78
2024/04/01 08:38:43;;;;;;;;;;;9.60;99.90;;;;;;6738663;88;20053;-78
2024/04/01 08:48:48;;;;;;;;;;;9.70;99.90;;;;;;6739786;88;20069;-78
2024/04/01 08:58:48;;;;;;;;;;;9.80;99.90;;;;;;6735335;88;20104;-80
2024/04/01 09:08:51;;;;;;;;;;;9.90;99.90;;;;;;6739363;88;20142;-78
2024/04/01 09:18:52;;;;;;;;;;;9.90;99.90;;;;;;6735282;88;20079;-79
2024/04/01 09:28:52;;;;;;;;;;;10.10;99.90;;;;;;6739185;88;20053;-78
2024/04/01 09:38:57;;;;;;;;;;;10.20;99.90;;;;;;6738671;88;20060;-77
2024/04/01 09:48:58;;;;;;;;;;;10.10;99.90;;;;;;6738156;88;20896;-79
2024/04/01 09:59:01;;;;;;;;;;;10.10;99.90;;;;;;6739605;88;20048;-79
2024/04/01 10:09:21;;;;;;;;;;;9.90;99.90;;;;;;6738561;88;20073;-78
2024/04/01 10:19:28;;;;;;;;;;;9.90;99.90;;;;;;6740916;88;20097;-78
2024/04/01 10:29:43;;;;;;;;;;;9.80;99.90;;;;;;6742401;88;20111;-77
2024/04/01 10:39:51;;;;;;;;;;;9.90;99.90;;;;;;6739576;88;20527;-78
2024/04/01 10:49:52;;;;;;;;;;;10.00;99.90;;;;;;6738236;88;20079;-80
2024/04/01 10:59:58;;;;;;;;;;;10.00;99.90;;;;;;6737330;88;20065;-79
2024/04/01 11:10:08;;;;;;;;;;;9.90;99.90;;;;;;6715814;88;20076;-79
2024/04/01 11:20:14;;;;;;;;;;;10.00;99.90;;;;;;6721571;88;20153;-79
2024/04/01 11:30:22;;;;;;;;;;;10.30;99.90;;;;;;6721691;88;20108;-80
2024/04/01 11:40:25;;;;;;;;;;;10.30;99.90;;;;;;6721871;88;20698;-77
2024/04/01 11:50:25;;;;;;;;;;;10.60;99.90;;;;;;6724191;88;20242;-78
2024/04/01 12:00:26;;;;;;;;;;;10.60;99.90;;;;;;6721448;88;20062;-77
2024/04/01 12:10:27;;;;;;;;;;;10.30;99.90;;;;;;6721332;88;20137;-78
2024/04/01 12:20:37;;;;;;;;;;;10.30;99.90;;;;;;6721758;88;20085;-78
2024/04/01 12:30:38;;;;;;;;;;;10.40;99.90;;;;;;6722178;88;20046;-78
2024/04/01 12:40:45;;;;;;;;;;;10.70;99.90;;;;;;6727267;88;20073;-78
2024/04/01 12:50:47;;;;;;;;;;;10.80;99.90;;;;;;6736084;88;20043;-76
2024/04/01 13:00:54;;;;;;;;;;;10.90;99.90;;;;;;6738471;88;20552;-78
2024/04/01 13:11:02;;;;;;;;;;;10.80;99.90;;;;;;6737191;88;20062;-77
2024/04/01 13:21:22;;;;;;;;;;;10.80;99.90;;;;;;6724885;88;20046;-77
2024/04/01 13:31:25;;;;;;;;;;;10.80;99.90;;;;;;6735777;88;20558;-79
2024/04/01 13:41:36;;;;;;;;;;;10.80;99.90;;;;;;6735125;88;20538;-78
2024/04/01 14:01:56;;;;;;;;;;;11.30;99.90;;;;;;6746398;88;20098;-78
2024/04/01 14:12:09;;;;;;;;;;;11.30;99.90;;;;;;6754074;88;20054;-78
2024/04/01 14:22:09;;;;;;;;;;;11.60;99.90;;;;;;6728303;88;20076;-78
2024/04/01 14:32:10;;;;;;;;;;;11.80;99.90;;;;;;6733500;88;20552;-77
2024/04/01 14:42:11;;;;;;;;;;;12.00;99.90;;;;;;6744318;88;20525;-78
2024/04/01 14:52:11;;;;;;;;;;;11.90;99.90;;;;;;6743978;88;20140;-78
2024/04/01 15:02:12;;;;;;;;;;;12.00;99.90;;;;;;6737654;88;20613;-78
2024/04/01 15:12:16;;;;;;;;;;;12.10;99.90;;;;;;6742078;88;20133;-77
2024/04/01 15:22:17;;;;;;;;;;;12.20;99.90;;;;;;6743571;88;20218;-78
2024/04/01 15:32:18;;;;;;;;;;;12.30;99.90;;;;;;6745040;88;20061;-79
2024/04/01 15:42:19;;;;;;;;;;;12.70;99.90;;;;;;6742165;88;20078;-76
2024/04/01 15:52:19;;;;;;;;;;;12.90;99.90;;;;;;6742507;88;20495;-78
2024/04/01 16:02:21;;;;;;;;;;;13.40;99.90;;;;;;6743077;88;20217;-77
2024/04/01 16:12:22;;;;;;;;;;;13.50;99.90;;;;;;6749105;88;20062;-78
2024/04/01 16:22:23;;;;;;;;;;;13.50;99.90;;;;;;6748071;88;20087;-79
2024/04/01 16:32:24;;;;;;;;;;;13.50;99.90;;;;;;6756851;88;20096;-78
2024/04/01 16:42:28;;;;;;;;;;;13.50;99.90;;;;;;6743870;88;20431;-77
2024/04/01 16:52:28;;;;;;;;;;;13.30;99.90;;;;;;6746035;88;20061;-77
2024/04/01 17:02:29;;;;;;;;;;;13.10;99.90;;;;;;6742322;88;20086;-77
2024/04/01 17:12:34;;;;;;;;;;;13.10;99.90;;;;;;6746356;88;20076;-78
2024/04/01 17:22:39;;;;;;;;;;;12.90;99.90;;;;;;6745407;88;20087;-76
2024/04/01 17:32:40;;;;;;;;;;;12.80;99.90;;;;;;6747723;88;20058;-78
2024/04/01 17:42:41;;;;;;;;;;;12.60;99.90;;;;;;6748726;88;20039;-78
2024/04/01 17:52:42;;;;;;;;;;;12.40;99.90;;;;;;6746669;88;20150;-77
2024/04/01 18:02:43;;;;;;;;;;;12.30;99.90;;;;;;6752995;88;20131;-77
2024/04/01 18:12:43;;;;;;;;;;;12.10;99.90;;;;;;6748992;88;20072;-78
2024/04/01 18:22:44;;;;;;;;;;;11.80;99.90;;;;;;6745511;88;20065;-76
2024/04/01 18:32:44;;;;;;;;;;;11.60;99.90;;;;;;6745654;88;20101;-77
2024/04/01 18:42:46;;;;;;;;;;;11.40;99.90;;;;;;6744196;88;20076;-77
2024/04/01 18:52:47;;;;;;;;;;;11.30;99.90;;;;;;6746242;88;20492;-77
2024/04/01 19:02:47;;;;;;;;;;;11.20;99.90;;;;;;6746814;88;20073;-77
2024/04/01 19:12:48;;;;;;;;;;;11.10;99.90;;;;;;6741803;88;20066;-78
2024/04/01 19:22:48;;;;;;;;;;;11.10;99.90;;;;;;6743202;88;20229;-78
2024/04/01 19:32:49;;;;;;;;;;;11.10;99.90;;;;;;6744362;88;20107;-78
2024/04/01 19:42:49;;;;;;;;;;;10.90;99.90;;;;;;6743663;88;20059;-77
2024/04/01 19:52:50;;;;;;;;;;;10.90;99.90;;;;;;6747212;77;20059;-78
2024/04/01 20:02:50;;;;;;;;;;;10.60;99.90;;;;;;6742925;88;20054;-77
2024/04/01 20:12:50;;;;;;;;;;;10.60;99.90;;;;;;6741947;88;20176;-78
2024/04/01 20:22:52;;;;;;;;;;;10.50;99.90;;;;;;6741391;88;20115;-77
2024/04/01 20:32:53;;;;;;;;;;;10.40;99.90;;;;;;6744465;88;20129;-79
2024/04/01 20:42:53;;;;;;;;;;;10.20;99.90;;;;;;6746845;88;20054;-78
2024/04/01 20:52:55;;;;;;;;;;;10.20;99.90;;;;;;6750763;88;20092;-77
2024/04/01 21:02:56;;;;;;;;;;;10.10;99.90;;;;;;6743947;88;20075;-77
2024/04/01 21:12:56;;;;;;;;;;;10.10;99.90;;;;;;6741905;88;20058;-76
2024/04/01 21:22:57;;;;;;;;;;;9.90;99.90;;;;;;6742997;88;20494;-77
2024/04/01 21:32:57;;;;;;;;;;;10.00;99.90;;;;;;6744716;88;20059;-78
2024/04/01 21:42:58;;;;;;;;;;;9.90;99.90;;;;;;6738212;88;20585;-77
2024/04/01 21:52:58;;;;;;;;;;;9.60;99.90;;;;;;6737115;88;20053;-77
2024/04/01 22:02:59;;;;;;;;;;;9.40;99.90;;;;;;6739562;88;20161;-76
2024/04/01 22:12:59;;;;;;;;;;;9.50;99.90;;;;;;6739408;88;20065;-78
2024/04/01 22:23:00;;;;;;;;;;;9.20;99.90;;;;;;6739438;88;20049;-76
2024/04/01 22:33:00;;;;;;;;;;;9.10;99.90;;;;;;6738091;88;20639;-76
2024/04/01 22:43:00;;;;;;;;;;;9.00;99.90;;;;;;6732307;88;20056;-77
2024/04/01 22:53:01;;;;;;;;;;;9.20;99.90;;;;;;6737319;88;20073;-77
2024/04/01 23:03:01;;;;;;;;;;;9.10;99.90;;;;;;6739074;88;20122;-77
2024/04/01 23:13:02;;;;;;;;;;;9.10;99.90;;;;;;6727132;88;20096;-76
2024/04/01 23:23:02;;;;;;;;;;;9.20;99.90;;;;;;6721045;88;20634;-78
2024/04/01 23:33:06;;;;;;;;;;;9.00;99.90;;;;;;6726238;88;20181;-77
2024/04/01 23:43:08;;;;;;;;;;;8.80;99.90;;;;;;6721743;88;20130;-77
2024/04/01 23:53:08;;;;;;;;;;;8.90;99.90;;;;;;6727818;88;20160;-78
